sensor_id;sensor_type;location;lat;lon;timestamp;pressure;altitude;pressure_sealevel;temperature;humidity
40994;BME280;26722;43.212;27.932;2023-02-11T00:00:33;55485.59;;;-146.72;54.71
40994;BME280;26722;43.212;27.932;2023-02-11T00:02:59;55466.59;;;-146.72;54.82
40994;BME280;26722;43.212;27.932;2023-02-11T00:05:24;55481.34;;;-146.72;55.14
40994;BME280;26722;43.212;27.932;2023-02-11T00:07:50;55470.81;;;-146.72;54.99
40994;BME280;26722;43.212;27.932;2023-02-11T00:10:15;55472.91;;;-146.72;55.33
40994;BME280;26722;43.212;27.932;2023-02-11T00:12:41;55468.69;;;-146.72;55.35
40994;BME280;26722;43.212;27.932;2023-02-11T00:15:08;55470.81;;;-146.72;55.11
40994;BME280;26722;43.212;27.932;2023-02-11T00:17:33;55472.91;;;-146.72;54.92
40994;BME280;26722;43.212;27.932;2023-02-11T00:19:59;55456.03;;;-146.72;55.09
40994;BME280;26722;43.212;27.932;2023-02-11T00:22:24;55483.47;;;-146.72;55.47
40994;BME280;26722;43.212;27.932;2023-02-11T00:24:49;55479.25;;;-146.72;55.24
40994;BME280;26722;43.212;27.932;2023-02-11T00:27:15;55466.59;;;-146.72;55.62
40994;BME280;26722;43.212;27.932;2023-02-11T00:29:40;55468.69;;;-146.72;55.36
40994;BME280;26722;43.212;27.932;2023-02-11T00:32:06;55462.34;;;-146.72;55.83
40994;BME280;26722;43.212;27.932;2023-02-11T00:34:33;55496.13;;;-146.72;55.81
40994;BME280;26722;43.212;27.932;2023-02-11T00:36:59;55456.03;;;-146.72;55.79
40994;BME280;26722;43.212;27.932;2023-02-11T00:39:24;55470.81;;;-146.72;56.36
40994;BME280;26722;43.212;27.932;2023-02-11T00:41:50;55500.38;;;-146.72;56.50
40994;BME280;26722;43.212;27.932;2023-02-11T00:44:16;55523.59;;;-146.72;56.13
40994;BME280;26722;43.212;27.932;2023-02-11T00:46:41;55472.91;;;-146.72;55.88
40994;BME280;26722;43.212;27.932;2023-02-11T00:49:06;55479.25;;;-146.72;56.48
40994;BME280;26722;43.212;27.932;2023-02-11T00:51:32;55485.59;;;-146.72;56.51
40994;BME280;26722;43.212;27.932;2023-02-11T00:53:57;55500.38;;;-146.72;57.24
40994;BME280;26722;43.212;27.932;2023-02-11T00:56:23;55479.25;;;-146.72;57.75
40994;BME280;26722;43.212;27.932;2023-02-11T00:58:48;55498.25;;;-146.72;58.02
40994;BME280;26722;43.212;27.932;2023-02-11T01:01:14;55498.25;;;-146.72;58.32
40994;BME280;26722;43.212;27.932;2023-02-11T01:03:40;55483.47;;;-146.72;58.63
40994;BME280;26722;43.212;27.932;2023-02-11T01:06:07;55491.91;;;-146.72;59.16
40994;BME280;26722;43.212;27.932;2023-02-11T01:08:33;55485.59;;;-146.72;59.38
40994;BME280;26722;43.212;27.932;2023-02-11T01:11:02;55500.38;;;-146.72;59.86
40994;BME280;26722;43.212;27.932;2023-02-11T01:13:30;55500.38;;;-146.72;60.03
40994;BME280;26722;43.212;27.932;2023-02-11T01:15:56;55494.03;;;-146.72;60.70
40994;BME280;26722;43.212;27.932;2023-02-11T01:18:22;55470.81;;;-146.72;60.79
40994;BME280;26722;43.212;27.932;2023-02-11T01:20:47;55483.47;;;-146.72;60.92
40994;BME280;26722;43.212;27.932;2023-02-11T01:23:13;55483.47;;;-146.72;61.07
40994;BME280;26722;43.212;27.932;2023-02-11T01:25:38;55489.81;;;-146.72;61.45
40994;BME280;26722;43.212;27.932;2023-02-11T01:28:04;55475.03;;;-146.72;61.52
40994;BME280;26722;43.212;27.932;2023-02-11T01:30:29;55472.91;;;-146.72;62.14
40994;BME280;26722;43.212;27.932;2023-02-11T01:32:54;55500.38;;;-146.72;62.51
40994;BME280;26722;43.212;27.932;2023-02-11T01:35:20;55500.38;;;-146.72;61.93
40994;BME280;26722;43.212;27.932;2023-02-11T01:37:45;55470.81;;;-146.72;61.88
40994;BME280;26722;43.212;27.932;2023-02-11T01:40:15;55470.81;;;-146.72;61.46
40994;BME280;26722;43.212;27.932;2023-02-11T01:42:42;55464.47;;;-146.72;61.88
40994;BME280;26722;43.212;27.932;2023-02-11T01:48:20;55504.59;;;-146.72;60.96
40994;BME280;26722;43.212;27.932;2023-02-11T01:50:49;55498.25;;;-146.72;60.88
40994;BME280;26722;43.212;27.932;2023-02-11T01:53:16;55494.03;;;-146.72;60.06
40994;BME280;26722;43.212;27.932;2023-02-11T01:56:02;55479.25;;;-146.72;60.26
40994;BME280;26722;43.212;27.932;2023-02-11T01:58:48;55485.59;;;-146.72;59.56
40994;BME280;26722;43.212;27.932;2023-02-11T02:01:19;55483.47;;;-146.72;59.76
40994;BME280;26722;43.212;27.932;2023-02-11T02:03:48;55491.91;;;-146.72;58.99
40994;BME280;26722;43.212;27.932;2023-02-11T02:06:34;55470.81;;;-146.72;59.52
40994;BME280;26722;43.212;27.932;2023-02-11T02:09:21;55479.25;;;-146.72;58.89
40994;BME280;26722;43.212;27.932;2023-02-11T02:11:47;55475.03;;;-146.72;58.47
40994;BME280;26722;43.212;27.932;2023-02-11T02:14:14;55458.13;;;-146.72;58.55
40994;BME280;26722;43.212;27.932;2023-02-11T02:16:39;55472.91;;;-146.72;58.33
40994;BME280;26722;43.212;27.932;2023-02-11T02:19:39;55464.47;;;-146.72;57.81
40994;BME280;26722;43.212;27.932;2023-02-11T02:33:37;55489.81;;;-146.72;57.96
40994;BME280;26722;43.212;27.932;2023-02-11T02:36:15;55462.34;;;-146.72;58.14
40994;BME280;26722;43.212;27.932;2023-02-11T02:39:11;55462.34;;;-146.72;58.22
40994;BME280;26722;43.212;27.932;2023-02-11T02:41:39;55491.91;;;-146.72;57.96
40994;BME280;26722;43.212;27.932;2023-02-11T02:44:07;55491.91;;;-146.72;57.76
40994;BME280;26722;43.212;27.932;2023-02-11T02:46:34;55494.03;;;-146.72;57.50
40994;BME280;26722;43.212;27.932;2023-02-11T02:49:00;55481.34;;;-146.72;57.61
40994;BME280;26722;43.212;27.932;2023-02-11T02:57:21;55472.91;;;-146.72;57.31
40994;BME280;26722;43.212;27.932;2023-02-11T03:07:42;55475.03;;;-146.72;57.93
40994;BME280;26722;43.212;27.932;2023-02-11T03:10:26;55496.13;;;-146.72;58.28
40994;BME280;26722;43.212;27.932;2023-02-11T03:12:54;55470.81;;;-146.72;58.22
40994;BME280;26722;43.212;27.932;2023-02-11T03:15:22;55483.47;;;-146.72;58.03
40994;BME280;26722;43.212;27.932;2023-02-11T03:17:51;55470.81;;;-146.72;57.84
40994;BME280;26722;43.212;27.932;2023-02-11T03:20:18;55487.69;;;-146.72;57.69
40994;BME280;26722;43.212;27.932;2023-02-11T03:22:47;55445.47;;;-146.72;57.30
40994;BME280;26722;43.212;27.932;2023-02-11T03:25:15;55498.25;;;-146.72;57.50
40994;BME280;26722;43.212;27.932;2023-02-11T03:27:53;55470.81;;;-146.72;57.69
40994;BME280;26722;43.212;27.932;2023-02-11T03:30:55;55475.03;;;-146.72;56.87
40994;BME280;26722;43.212;27.932;2023-02-11T03:33:27;55475.03;;;-146.72;57.91
40994;BME280;26722;43.212;27.932;2023-02-11T03:35:57;55513.03;;;-146.72;57.22
40994;BME280;26722;43.212;27.932;2023-02-11T03:38:28;55481.34;;;-146.72;57.87
40994;BME280;26722;43.212;27.932;2023-02-11T03:40:57;55466.59;;;-146.72;57.16
40994;BME280;26722;43.212;27.932;2023-02-11T03:43:31;55470.81;;;-146.72;56.87
40994;BME280;26722;43.212;27.932;2023-02-11T03:45:57;55496.13;;;-146.72;56.71
40994;BME280;26722;43.212;27.932;2023-02-11T03:48:28;55487.69;;;-146.72;56.92
40994;BME280;26722;43.212;27.932;2023-02-11T03:50:57;55479.25;;;-146.72;56.94
40994;BME280;26722;43.212;27.932;2023-02-11T03:53:24;55481.34;;;-146.72;56.34
40994;BME280;26722;43.212;27.932;2023-02-11T03:55:51;55487.69;;;-146.72;56.72
40994;BME280;26722;43.212;27.932;2023-02-11T03:58:18;55468.69;;;-146.72;56.75
40994;BME280;26722;43.212;27.932;2023-02-11T04:00:43;55451.81;;;-146.72;57.10
40994;BME280;26722;43.212;27.932;2023-02-11T04:03:10;55479.25;;;-146.72;57.10
40994;BME280;26722;43.212;27.932;2023-02-11T04:05:36;55475.03;;;-146.72;57.46
40994;BME280;26722;43.212;27.932;2023-02-11T04:08:02;55498.25;;;-146.72;57.64
40994;BME280;26722;43.212;27.932;2023-02-11T04:10:27;55449.69;;;-146.72;58.04
40994;BME280;26722;43.212;27.932;2023-02-11T04:12:53;55485.59;;;-146.72;57.56
40994;BME280;26722;43.212;27.932;2023-02-11T04:15:18;55468.69;;;-146.72;57.79
40994;BME280;26722;43.212;27.932;2023-02-11T04:17:44;55483.47;;;-146.72;58.17
40994;BME280;26722;43.212;27.932;2023-02-11T04:20:10;55500.38;;;-146.72;57.86
40994;BME280;26722;43.212;27.932;2023-02-11T04:22:36;55489.81;;;-146.72;57.98
40994;BME280;26722;43.212;27.932;2023-02-11T04:25:02;55496.13;;;-146.72;58.11
40994;BME280;26722;43.212;27.932;2023-02-11T04:27:28;55491.91;;;-146.72;58.68
40994;BME280;26722;43.212;27.932;2023-02-11T04:29:54;55470.81;;;-146.72;58.72
40994;BME280;26722;43.212;27.932;2023-02-11T04:32:19;55510.91;;;-146.72;58.90
40994;BME280;26722;43.212;27.932;2023-02-11T04:34:45;55489.81;;;-146.72;58.91
40994;BME280;26722;43.212;27.932;2023-02-11T04:37:10;55510.91;;;-146.72;58.69
40994;BME280;26722;43.212;27.932;2023-02-11T04:39:35;55479.25;;;-146.72;58.84
40994;BME280;26722;43.212;27.932;2023-02-11T04:42:01;55496.13;;;-146.72;58.35
40994;BME280;26722;43.212;27.932;2023-02-11T04:44:27;55494.03;;;-146.72;59.11
40994;BME280;26722;43.212;27.932;2023-02-11T04:46:52;55487.69;;;-146.72;58.68
40994;BME280;26722;43.212;27.932;2023-02-11T04:49:18;55479.25;;;-146.72;58.50
40994;BME280;26722;43.212;27.932;2023-02-11T04:51:43;55483.47;;;-146.72;58.20
40994;BME280;26722;43.212;27.932;2023-02-11T04:54:09;55506.69;;;-146.72;58.27
40994;BME280;26722;43.212;27.932;2023-02-11T04:56:35;55508.81;;;-146.72;58.45
40994;BME280;26722;43.212;27.932;2023-02-11T04:59:00;55498.25;;;-146.72;58.16
40994;BME280;26722;43.212;27.932;2023-02-11T05:01:26;55475.03;;;-146.72;58.22
40994;BME280;26722;43.212;27.932;2023-02-11T05:03:51;55485.59;;;-146.72;58.29
40994;BME280;26722;43.212;27.932;2023-02-11T05:06:17;55487.69;;;-146.72;58.38
40994;BME280;26722;43.212;27.932;2023-02-11T05:08:43;55491.91;;;-146.72;58.46
40994;BME280;26722;43.212;27.932;2023-02-11T05:11:15;55477.13;;;-146.72;58.45
40994;BME280;26722;43.212;27.932;2023-02-11T05:13:41;55494.03;;;-146.72;58.35
40994;BME280;26722;43.212;27.932;2023-02-11T05:16:07;55479.25;;;-146.72;58.55
40994;BME280;26722;43.212;27.932;2023-02-11T05:18:33;55496.13;;;-146.72;58.31
40994;BME280;26722;43.212;27.932;2023-02-11T05:21:05;55504.59;;;-146.72;58.62
40994;BME280;26722;43.212;27.932;2023-02-11T05:23:30;55479.25;;;-146.72;58.71
40994;BME280;26722;43.212;27.932;2023-02-11T05:25:56;55502.47;;;-146.72;58.91
40994;BME280;26722;43.212;27.932;2023-02-11T05:28:21;55494.03;;;-146.72;58.90
40994;BME280;26722;43.212;27.932;2023-02-11T05:30:47;55508.81;;;-146.72;59.04
40994;BME280;26722;43.212;27.932;2023-02-11T05:33:12;55523.59;;;-146.72;58.93
40994;BME280;26722;43.212;27.932;2023-02-11T05:35:38;55479.25;;;-146.72;58.18
40994;BME280;26722;43.212;27.932;2023-02-11T05:38:03;55502.47;;;-146.72;58.53
40994;BME280;26722;43.212;27.932;2023-02-11T05:40:28;55483.47;;;-146.72;58.38
40994;BME280;26722;43.212;27.932;2023-02-11T05:42:54;55496.13;;;-146.72;58.01
40994;BME280;26722;43.212;27.932;2023-02-11T05:45:19;55472.91;;;-146.72;58.00
40994;BME280;26722;43.212;27.932;2023-02-11T05:47:45;55462.34;;;-146.72;58.19
40994;BME280;26722;43.212;27.932;2023-02-11T05:50:10;55494.03;;;-146.72;57.83
40994;BME280;26722;43.212;27.932;2023-02-11T05:52:35;55475.03;;;-146.72;58.17
40994;BME280;26722;43.212;27.932;2023-02-11T05:55:01;55479.25;;;-146.72;58.27
40994;BME280;26722;43.212;27.932;2023-02-11T05:57:26;55479.25;;;-146.72;58.24
40994;BME280;26722;43.212;27.932;2023-02-11T05:59:52;55483.47;;;-146.72;57.85
40994;BME280;26722;43.212;27.932;2023-02-11T06:02:17;55521.47;;;-146.72;57.54
40994;BME280;26722;43.212;27.932;2023-02-11T06:04:43;55475.03;;;-146.72;57.38
40994;BME280;26722;43.212;27.932;2023-02-11T06:07:08;55475.03;;;-146.72;57.07
40994;BME280;26722;43.212;27.932;2023-02-11T06:09:35;55502.47;;;-146.72;57.07
40994;BME280;26722;43.212;27.932;2023-02-11T06:12:01;55483.47;;;-146.72;57.14
40994;BME280;26722;43.212;27.932;2023-02-11T06:14:26;55456.03;;;-146.72;57.13
40994;BME280;26722;43.212;27.932;2023-02-11T06:16:51;55487.69;;;-146.72;57.01
40994;BME280;26722;43.212;27.932;2023-02-11T06:19:17;55479.25;;;-146.72;56.93
40994;BME280;26722;43.212;27.932;2023-02-11T06:21:42;55494.03;;;-146.72;56.92
40994;BME280;26722;43.212;27.932;2023-02-11T06:24:07;55483.47;;;-146.72;57.05
40994;BME280;26722;43.212;27.932;2023-02-11T06:26:33;55462.34;;;-146.72;56.89
40994;BME280;26722;43.212;27.932;2023-02-11T06:28:59;55477.13;;;-146.72;56.58
40994;BME280;26722;43.212;27.932;2023-02-11T06:31:25;55487.69;;;-146.72;56.64
40994;BME280;26722;43.212;27.932;2023-02-11T06:33:51;55483.47;;;-146.72;56.76
40994;BME280;26722;43.212;27.932;2023-02-11T06:36:20;55466.59;;;-146.72;56.65
40994;BME280;26722;43.212;27.932;2023-02-11T06:38:46;55456.03;;;-146.72;56.36
40994;BME280;26722;43.212;27.932;2023-02-11T06:41:14;55447.56;;;-146.72;56.49
40994;BME280;26722;43.212;27.932;2023-02-11T06:43:39;55445.47;;;-146.72;55.98
40994;BME280;26722;43.212;27.932;2023-02-11T06:46:06;55462.34;;;-146.72;55.59
40994;BME280;26722;43.212;27.932;2023-02-11T06:48:32;55470.81;;;-146.72;55.69
40994;BME280;26722;43.212;27.932;2023-02-11T06:51:03;55477.13;;;-146.72;55.57
40994;BME280;26722;43.212;27.932;2023-02-11T06:53:30;55458.13;;;-146.72;55.60
40994;BME280;26722;43.212;27.932;2023-02-11T06:55:55;55458.13;;;-146.72;55.55
40994;BME280;26722;43.212;27.932;2023-02-11T06:58:21;55458.13;;;-146.72;56.05
40994;BME280;26722;43.212;27.932;2023-02-11T07:00:46;55456.03;;;-146.72;56.06
40994;BME280;26722;43.212;27.932;2023-02-11T07:03:12;55470.81;;;-146.72;56.56
40994;BME280;26722;43.212;27.932;2023-02-11T07:05:41;55441.25;;;-146.72;56.49
40994;BME280;26722;43.212;27.932;2023-02-11T07:08:07;55470.81;;;-146.72;56.22
40994;BME280;26722;43.212;27.932;2023-02-11T07:10:33;55453.91;;;-146.72;56.07
40994;BME280;26722;43.212;27.932;2023-02-11T07:12:58;55475.03;;;-146.72;55.17
40994;BME280;26722;43.212;27.932;2023-02-11T07:15:23;55462.34;;;-146.72;55.39
40994;BME280;26722;43.212;27.932;2023-02-11T07:17:49;55445.47;;;-146.72;55.73
40994;BME280;26722;43.212;27.932;2023-02-11T07:20:15;55475.03;;;-146.72;56.38
40994;BME280;26722;43.212;27.932;2023-02-11T07:22:40;55453.91;;;-146.72;56.31
40994;BME280;26722;43.212;27.932;2023-02-11T07:25:06;55453.91;;;-146.72;56.16
40994;BME280;26722;43.212;27.932;2023-02-11T07:27:31;55445.47;;;-146.72;56.13
40994;BME280;26722;43.212;27.932;2023-02-11T07:29:57;55430.69;;;-146.72;56.01
40994;BME280;26722;43.212;27.932;2023-02-11T07:32:22;55437.03;;;-146.72;56.29
40994;BME280;26722;43.212;27.932;2023-02-11T07:34:48;55422.25;;;-146.72;55.67
40994;BME280;26722;43.212;27.932;2023-02-11T07:37:13;55447.56;;;-146.72;55.67
40994;BME280;26722;43.212;27.932;2023-02-11T07:39:39;55426.47;;;-146.72;55.54
40994;BME280;26722;43.212;27.932;2023-02-11T07:42:05;55428.56;;;-146.72;55.68
40994;BME280;26722;43.212;27.932;2023-02-11T07:44:30;55445.47;;;-146.72;55.64
40994;BME280;26722;43.212;27.932;2023-02-11T07:46:58;55428.56;;;-146.72;55.46
40994;BME280;26722;43.212;27.932;2023-02-11T07:49:23;55411.69;;;-146.72;54.89
40994;BME280;26722;43.212;27.932;2023-02-11T07:51:49;55407.47;;;-146.72;54.61
40994;BME280;26722;43.212;27.932;2023-02-11T07:54:16;55420.13;;;-146.72;54.68
40994;BME280;26722;43.212;27.932;2023-02-11T07:56:41;55407.47;;;-146.72;54.04
40994;BME280;26722;43.212;27.932;2023-02-11T07:59:07;55420.13;;;-146.72;53.93
40994;BME280;26722;43.212;27.932;2023-02-11T08:01:32;55409.56;;;-146.72;53.10
40994;BME280;26722;43.212;27.932;2023-02-11T08:03:59;55386.34;;;-146.72;52.02
40994;BME280;26722;43.212;27.932;2023-02-11T08:06:27;55377.91;;;-146.72;51.21
40994;BME280;26722;43.212;27.932;2023-02-11T08:08:53;55405.34;;;-146.72;50.28
40994;BME280;26722;43.212;27.932;2023-02-11T08:11:21;55373.69;;;-146.72;49.53
40994;BME280;26722;43.212;27.932;2023-02-11T08:13:47;55390.56;;;-146.72;49.54
40994;BME280;26722;43.212;27.932;2023-02-11T08:16:19;55365.22;;;-146.72;49.89
40994;BME280;26722;43.212;27.932;2023-02-11T08:18:45;55367.34;;;-146.72;49.86
40994;BME280;26722;43.212;27.932;2023-02-11T08:21:11;55377.91;;;-146.72;49.47
40994;BME280;26722;43.212;27.932;2023-02-11T08:23:38;55348.34;;;-146.72;48.88
40994;BME280;26722;43.212;27.932;2023-02-11T08:26:06;55331.44;;;-146.72;48.22
40994;BME280;26722;43.212;27.932;2023-02-11T08:28:37;55384.22;;;-146.72;48.34
40994;BME280;26722;43.212;27.932;2023-02-11T08:31:08;55365.22;;;-146.72;48.33
40994;BME280;26722;43.212;27.932;2023-02-11T08:33:33;55356.78;;;-146.72;48.06
40994;BME280;26722;43.212;27.932;2023-02-11T08:35:59;55350.44;;;-146.72;47.67
40994;BME280;26722;43.212;27.932;2023-02-11T08:38:25;55327.22;;;-146.72;46.86
40994;BME280;26722;43.212;27.932;2023-02-11T08:40:51;55346.22;;;-146.72;46.61
40994;BME280;26722;43.212;27.932;2023-02-11T08:43:16;55327.22;;;-146.72;46.73
40994;BME280;26722;43.212;27.932;2023-02-11T08:45:42;55337.78;;;-146.72;45.95
40994;BME280;26722;43.212;27.932;2023-02-11T08:48:07;55306.09;;;-146.72;46.05
40994;BME280;26722;43.212;27.932;2023-02-11T08:50:32;55323.00;;;-146.72;45.84
40994;BME280;26722;43.212;27.932;2023-02-11T08:52:58;55318.78;;;-146.72;45.40
40994;BME280;26722;43.212;27.932;2023-02-11T08:55:23;55327.22;;;-146.72;44.72
40994;BME280;26722;43.212;27.932;2023-02-11T08:57:49;55325.13;;;-146.72;44.85
40994;BME280;26722;43.212;27.932;2023-02-11T09:00:16;55335.66;;;-146.72;44.77
40994;BME280;26722;43.212;27.932;2023-02-11T09:02:41;55344.13;;;-146.72;44.72
40994;BME280;26722;43.212;27.932;2023-02-11T09:05:07;55352.56;;;-146.72;44.58
40994;BME280;26722;43.212;27.932;2023-02-11T09:07:33;55323.00;;;-146.72;44.00
40994;BME280;26722;43.212;27.932;2023-02-11T09:09:58;55329.34;;;-146.72;43.87
40994;BME280;26722;43.212;27.932;2023-02-11T09:12:24;55342.00;;;-146.72;44.24
40994;BME280;26722;43.212;27.932;2023-02-11T09:14:49;55304.00;;;-146.72;44.04
40994;BME280;26722;43.212;27.932;2023-02-11T09:17:15;55335.66;;;-146.72;44.00
40994;BME280;26722;43.212;27.932;2023-02-11T09:19:40;55335.66;;;-146.72;43.25
40994;BME280;26722;43.212;27.932;2023-02-11T09:22:06;55320.88;;;-146.72;43.00
40994;BME280;26722;43.212;27.932;2023-02-11T09:24:32;55312.44;;;-146.72;43.01
40994;BME280;26722;43.212;27.932;2023-02-11T09:26:57;55310.34;;;-146.72;43.07
40994;BME280;26722;43.212;27.932;2023-02-11T09:29:23;55293.44;;;-146.72;42.96
40994;BME280;26722;43.212;27.932;2023-02-11T09:31:48;55312.44;;;-146.72;42.74
40994;BME280;26722;43.212;27.932;2023-02-11T09:34:14;55323.00;;;-146.72;42.31
40994;BME280;26722;43.212;27.932;2023-02-11T09:36:40;55314.56;;;-146.72;42.28
40994;BME280;26722;43.212;27.932;2023-02-11T09:39:10;55333.56;;;-146.72;41.88
40994;BME280;26722;43.212;27.932;2023-02-11T09:44:16;55308.22;;;-146.72;42.31
40994;BME280;26722;43.212;27.932;2023-02-11T09:46:52;55297.66;;;-146.72;41.89
40994;BME280;26722;43.212;27.932;2023-02-11T09:49:23;55320.88;;;-146.72;41.89
40994;BME280;26722;43.212;27.932;2023-02-11T09:54:58;55280.78;;;-146.72;41.61
40994;BME280;26722;43.212;27.932;2023-02-11T09:57:36;55291.34;;;-146.72;41.17
40994;BME280;26722;43.212;27.932;2023-02-11T10:00:23;55312.44;;;-146.72;41.12
40994;BME280;26722;43.212;27.932;2023-02-11T10:17:15;55285.00;;;-146.72;40.71
40994;BME280;26722;43.212;27.932;2023-02-11T10:20:14;55272.31;;;-146.72;40.97
40994;BME280;26722;43.212;27.932;2023-02-11T10:22:52;55263.88;;;-146.72;40.12
40994;BME280;26722;43.212;27.932;2023-02-11T10:25:25;55274.44;;;-146.72;40.84
40994;BME280;26722;43.212;27.932;2023-02-11T10:27:54;55251.22;;;-146.72;40.29
40994;BME280;26722;43.212;27.932;2023-02-11T10:30:37;55268.09;;;-146.72;39.40
40994;BME280;26722;43.212;27.932;2023-02-11T10:33:13;55268.09;;;-146.72;39.58
40994;BME280;26722;43.212;27.932;2023-02-11T10:35:41;55274.44;;;-146.72;39.79
40994;BME280;26722;43.212;27.932;2023-02-11T10:38:09;55272.31;;;-146.72;39.19
40994;BME280;26722;43.212;27.932;2023-02-11T10:40:34;55263.88;;;-146.72;39.34
40994;BME280;26722;43.212;27.932;2023-02-11T10:43:03;55259.66;;;-146.72;39.30
40994;BME280;26722;43.212;27.932;2023-02-11T10:45:39;55255.44;;;-146.72;38.66
40994;BME280;26722;43.212;27.932;2023-02-11T10:51:32;55244.88;;;-146.72;38.86
40994;BME280;26722;43.212;27.932;2023-02-11T10:56:35;55255.44;;;-146.72;38.24
40994;BME280;26722;43.212;27.932;2023-02-11T10:59:06;55259.66;;;-146.72;38.67
40994;BME280;26722;43.212;27.932;2023-02-11T11:01:39;55247.00;;;-146.72;38.48
40994;BME280;26722;43.212;27.932;2023-02-11T11:15:00;55230.09;;;-146.72;37.46
40994;BME280;26722;43.212;27.932;2023-02-11T11:17:26;55234.31;;;-146.72;37.02
40994;BME280;26722;43.212;27.932;2023-02-11T11:22:41;55247.00;;;-146.72;37.52
40994;BME280;26722;43.212;27.932;2023-02-11T11:25:24;55255.44;;;-146.72;37.65
40994;BME280;26722;43.212;27.932;2023-02-11T11:27:53;55247.00;;;-146.72;37.78
40994;BME280;26722;43.212;27.932;2023-02-11T11:30:22;55238.53;;;-146.72;37.92
40994;BME280;26722;43.212;27.932;2023-02-11T11:32:49;55253.31;;;-146.72;37.84
40994;BME280;26722;43.212;27.932;2023-02-11T11:35:27;55230.09;;;-146.72;37.78
40994;BME280;26722;43.212;27.932;2023-02-11T11:38:03;55198.44;;;-146.72;37.19
40994;BME280;26722;43.212;27.932;2023-02-11T11:40:31;55225.88;;;-146.72;36.92
40994;BME280;26722;43.212;27.932;2023-02-11T11:45:38;55234.31;;;-146.72;36.92
40994;BME280;26722;43.212;27.932;2023-02-11T11:48:27;55213.22;;;-146.72;36.59
40994;BME280;26722;43.212;27.932;2023-02-11T11:51:00;55238.53;;;-146.72;36.43
40994;BME280;26722;43.212;27.932;2023-02-11T11:56:27;55230.09;;;-146.72;36.04
40994;BME280;26722;43.212;27.932;2023-02-11T11:58:55;55225.88;;;-146.72;36.18
40994;BME280;26722;43.212;27.932;2023-02-11T12:01:34;55221.66;;;-146.72;36.03
40994;BME280;26722;43.212;27.932;2023-02-11T12:04:23;55219.53;;;-146.72;35.95
40994;BME280;26722;43.212;27.932;2023-02-11T12:20:50;55211.09;;;-146.72;36.13
40994;BME280;26722;43.212;27.932;2023-02-11T12:23:45;55228.00;;;-146.72;35.98
40994;BME280;26722;43.212;27.932;2023-02-11T12:25:46;55225.88;;;-146.72;35.94
40994;BME280;26722;43.212;27.932;2023-02-11T12:45:38;55234.31;;;-146.72;34.86
40994;BME280;26722;43.212;27.932;2023-02-11T12:53:55;55225.88;;;-146.72;33.99
40994;BME280;26722;43.212;27.932;2023-02-11T12:58:58;55228.00;;;-146.72;33.12
40994;BME280;26722;43.212;27.932;2023-02-11T13:01:43;55247.00;;;-146.72;33.41
40994;BME280;26722;43.212;27.932;2023-02-11T13:04:27;55234.31;;;-146.72;33.77
40994;BME280;26722;43.212;27.932;2023-02-11T13:07:01;55238.53;;;-146.72;33.63
40994;BME280;26722;43.212;27.932;2023-02-11T13:09:34;55209.00;;;-146.72;33.12
40994;BME280;26722;43.212;27.932;2023-02-11T13:12:03;55225.88;;;-146.72;33.25
40994;BME280;26722;43.212;27.932;2023-02-11T13:14:53;55242.78;;;-146.72;32.94
40994;BME280;26722;43.212;27.932;2023-02-11T13:18:29;55232.22;;;-146.72;32.80
40994;BME280;26722;43.212;27.932;2023-02-11T13:20:44;55219.53;;;-146.72;32.75
40994;BME280;26722;43.212;27.932;2023-02-11T13:23:23;55223.78;;;-146.72;33.02
40994;BME280;26722;43.212;27.932;2023-02-11T13:26:01;55230.09;;;-146.72;32.85
40994;BME280;26722;43.212;27.932;2023-02-11T13:31:01;55223.78;;;-146.72;32.55
40994;BME280;26722;43.212;27.932;2023-02-11T13:38:26;55234.31;;;-146.72;32.58
40994;BME280;26722;43.212;27.932;2023-02-11T13:43:43;55251.22;;;-146.72;32.52
40994;BME280;26722;43.212;27.932;2023-02-11T13:46:10;55249.09;;;-146.72;32.95
40994;BME280;26722;43.212;27.932;2023-02-11T13:48:50;55217.44;;;-146.72;33.05
40994;BME280;26722;43.212;27.932;2023-02-11T13:51:33;55272.31;;;-146.72;32.95
40994;BME280;26722;43.212;27.932;2023-02-11T13:53:59;55247.00;;;-146.72;32.67
40994;BME280;26722;43.212;27.932;2023-02-11T13:56:39;55221.66;;;-146.72;32.79
40994;BME280;26722;43.212;27.932;2023-02-11T14:04:34;55221.66;;;-146.72;32.68
40994;BME280;26722;43.212;27.932;2023-02-11T14:07:32;55261.78;;;-146.72;32.80
40994;BME280;26722;43.212;27.932;2023-02-11T14:15:45;55251.22;;;-146.72;32.72
40994;BME280;26722;43.212;27.932;2023-02-11T14:21:13;55238.53;;;-146.72;32.70
40994;BME280;26722;43.212;27.932;2023-02-11T14:23:40;55238.53;;;-146.72;32.93
40994;BME280;26722;43.212;27.932;2023-02-11T14:28:38;55234.31;;;-146.72;33.89
40994;BME280;26722;43.212;27.932;2023-02-11T14:32:02;55242.78;;;-146.72;35.55
40994;BME280;26722;43.212;27.932;2023-02-11T14:34:21;55225.88;;;-146.72;39.93
40994;BME280;26722;43.212;27.932;2023-02-11T14:37:02;55234.31;;;-146.72;41.18
40994;BME280;26722;43.212;27.932;2023-02-11T14:42:19;55217.44;;;-146.72;42.72
40994;BME280;26722;43.212;27.932;2023-02-11T14:44:48;55221.66;;;-146.72;42.69
40994;BME280;26722;43.212;27.932;2023-02-11T14:47:18;55238.53;;;-146.72;43.21
40994;BME280;26722;43.212;27.932;2023-02-11T14:49:45;55225.88;;;-146.72;44.29
40994;BME280;26722;43.212;27.932;2023-02-11T14:52:28;55221.66;;;-146.72;44.69
40994;BME280;26722;43.212;27.932;2023-02-11T14:55:22;55238.53;;;-146.72;44.27
40994;BME280;26722;43.212;27.932;2023-02-11T14:58:17;55251.22;;;-146.72;45.05
40994;BME280;26722;43.212;27.932;2023-02-11T15:00:54;55255.44;;;-146.72;46.37
40994;BME280;26722;43.212;27.932;2023-02-11T15:03:32;55263.88;;;-146.72;47.13